Time;durP1;ratioP1;P1;durP2;ratioP2;P2;SDS_P1;SDS_P2;PMS_P1;PMS_P2;Temp;Humidity;BMP_temperature;BMP_pressure;BME280_temperature;BME280_humidity;BME280_pressure;Samples;Min_cycle;Max_cycle;Signal;HPM_P1;HPM_P2
2023/01/03 00:01:20;;;;;;;4.38;2.60;;;;;;;;;;5063277;28;20020;-58
2023/01/03 00:03:45;;;;;;;7.40;2.60;;;;;;;;;;5064436;28;20060;-58
2023/01/03 00:06:14;;;;;;;4.30;2.50;;;;;;;;;;5063219;28;20347;-58
2023/01/03 00:08:40;;;;;;;5.85;2.70;;;;;;;;;;5062646;28;20340;-58
2023/01/03 00:11:09;;;;;;;5.15;2.40;;;;;;;;;;5062882;28;20115;-58
2023/01/03 00:13:36;;;;;;;4.85;2.50;;;;;;;;;;5060737;28;20067;-59
2023/01/03 00:16:01;;;;;;;4.38;2.30;;;;;;;;;;5064011;28;20513;-59
2023/01/03 00:18:26;;;;;;;5.57;2.22;;;;;;;;;;5061221;28;20024;-59
2023/01/03 00:20:52;;;;;;;5.45;2.20;;;;;;;;;;5062930;28;20043;-59
2023/01/03 00:23:17;;;;;;;4.38;2.70;;;;;;;;;;5064137;28;20035;-59
2023/01/03 00:25:42;;;;;;;6.07;2.60;;;;;;;;;;5063793;28;20387;-59
2023/01/03 00:28:07;;;;;;;8.35;2.30;;;;;;;;;;5059715;28;20467;-59
2023/01/03 00:30:33;;;;;;;4.38;2.30;;;;;;;;;;5060379;28;20498;-58
2023/01/03 00:32:58;;;;;;;8.73;2.40;;;;;;;;;;5056240;28;20048;-59
2023/01/03 00:35:23;;;;;;;5.82;2.35;;;;;;;;;;5063187;28;20477;-59
2023/01/03 00:37:48;;;;;;;6.60;2.50;;;;;;;;;;5062896;28;20035;-59
2023/01/03 00:40:13;;;;;;;6.28;2.67;;;;;;;;;;5058973;28;20028;-59
2023/01/03 00:45:22;;;;;;;6.63;2.50;;;;;;;;;;5063271;28;20060;-59
2023/01/03 00:47:48;;;;;;;5.13;2.38;;;;;;;;;;5063411;28;20028;-59
2023/01/03 00:50:13;;;;;;;6.03;2.50;;;;;;;;;;5063376;28;20035;-59
2023/01/03 00:52:38;;;;;;;8.05;2.80;;;;;;;;;;5063295;28;20067;-59
2023/01/03 00:55:04;;;;;;;5.70;2.92;;;;;;;;;;5064120;28;20070;-59
2023/01/03 00:57:29;;;;;;;4.07;2.10;;;;;;;;;;5062818;28;20071;-59
2023/01/03 00:59:54;;;;;;;5.18;2.40;;;;;;;;;;5063731;28;20058;-59
2023/01/03 01:02:20;;;;;;;4.32;2.88;;;;;;;;;;5063211;28;20097;-59
2023/01/03 01:04:45;;;;;;;7.13;2.60;;;;;;;;;;5062792;28;20025;-59
2023/01/03 01:07:10;;;;;;;5.05;2.53;;;;;;;;;;5062955;28;20056;-59
2023/01/03 01:09:36;;;;;;;6.90;2.80;;;;;;;;;;5061506;28;20317;-58
2023/01/03 01:12:01;;;;;;;4.75;2.30;;;;;;;;;;5057903;28;20029;-58
2023/01/03 01:14:27;;;;;;;5.53;2.55;;;;;;;;;;5063054;28;20025;-58
2023/01/03 01:16:59;;;;;;;8.68;2.70;;;;;;;;;;5061711;28;20036;-60
2023/01/03 01:19:29;;;;;;;3.75;2.20;;;;;;;;;;5062350;28;20103;-58
2023/01/03 01:21:54;;;;;;;5.77;2.70;;;;;;;;;;5060907;28;20490;-58
2023/01/03 01:24:19;;;;;;;8.38;3.58;;;;;;;;;;5063149;28;20024;-58
2023/01/03 01:26:45;;;;;;;5.78;2.83;;;;;;;;;;5063617;28;20118;-58
2023/01/03 01:29:10;;;;;;;5.45;2.90;;;;;;;;;;5059795;28;20074;-59
2023/01/03 01:31:35;;;;;;;7.40;3.15;;;;;;;;;;5077494;28;20350;-59
2023/01/03 01:34:01;;;;;;;5.70;2.72;;;;;;;;;;5062958;28;20020;-58
2023/01/03 01:36:27;;;;;;;6.05;2.78;;;;;;;;;;5062364;28;20449;-60
2023/01/03 01:38:55;;;;;;;9.18;2.88;;;;;;;;;;5062520;28;20233;-60
2023/01/03 01:44:36;;;;;;;5.32;3.05;;;;;;;;;;5073704;28;20538;-59
2023/01/03 01:46:49;;;;;;;5.90;2.88;;;;;;;;;;5066776;28;20070;-58
2023/01/03 01:49:17;;;;;;;5.28;2.30;;;;;;;;;;5061563;28;20036;-59
2023/01/03 01:51:43;;;;;;;7.95;2.90;;;;;;;;;;5066532;28;20379;-59
2023/01/03 01:54:08;;;;;;;6.47;2.63;;;;;;;;;;5064508;28;20548;-60
2023/01/03 01:56:35;;;;;;;5.97;2.63;;;;;;;;;;5066223;28;20024;-60
2023/01/03 01:59:00;;;;;;;5.65;2.70;;;;;;;;;;5061487;28;20032;-60
2023/01/03 02:01:26;;;;;;;4.45;2.70;;;;;;;;;;5064972;28;20027;-60
2023/01/03 02:03:55;;;;;;;8.77;2.88;;;;;;;;;;5061466;28;20375;-60
2023/01/03 02:06:20;;;;;;;5.07;2.80;;;;;;;;;;5066316;28;20448;-60
2023/01/03 02:08:45;;;;;;;5.30;2.80;;;;;;;;;;5064441;28;20558;-60
2023/01/03 02:11:29;;;;;;;6.70;2.90;;;;;;;;;;5062567;28;20082;-60
2023/01/03 02:13:55;;;;;;;8.93;3.63;;;;;;;;;;5064306;28;20025;-59
2023/01/03 02:16:23;;;;;;;10.10;3.30;;;;;;;;;;5065910;28;20343;-59
2023/01/03 02:19:00;;;;;;;7.60;3.50;;;;;;;;;;5062456;28;20058;-59
2023/01/03 02:21:44;;;;;;;11.15;3.58;;;;;;;;;;5064650;28;20035;-60
2023/01/03 02:24:32;;;;;;;7.22;3.53;;;;;;;;;;5066184;28;20024;-60
2023/01/03 02:26:57;;;;;;;6.68;3.30;;;;;;;;;;5066091;28;20040;-60
2023/01/03 02:29:28;;;;;;;7.15;3.40;;;;;;;;;;5062704;28;20047;-60
2023/01/03 02:32:00;;;;;;;8.32;3.65;;;;;;;;;;5065303;28;20090;-60
2023/01/03 02:34:31;;;;;;;9.00;4.03;;;;;;;;;;5064114;28;20017;-60
2023/01/03 02:36:59;;;;;;;6.03;3.60;;;;;;;;;;5064797;28;20943;-60
2023/01/03 02:39:34;;;;;;;6.65;3.42;;;;;;;;;;5064996;28;20023;-61
2023/01/03 02:44:57;;;;;;;8.00;3.00;;;;;;;;;;5060780;28;20039;-59
2023/01/03 02:47:23;;;;;;;7.20;3.13;;;;;;;;;;5063281;28;20166;-59
2023/01/03 02:49:49;;;;;;;7.50;3.30;;;;;;;;;;5064966;28;20020;-59
2023/01/03 02:52:16;;;;;;;13.13;3.45;;;;;;;;;;5063157;28;20097;-59
2023/01/03 02:54:46;;;;;;;6.53;3.20;;;;;;;;;;5065086;28;20016;-58
2023/01/03 02:57:19;;;;;;;7.07;3.20;;;;;;;;;;5057880;28;20155;-59
2023/01/03 02:59:45;;;;;;;6.13;3.20;;;;;;;;;;5063256;28;20047;-59
2023/01/03 03:02:10;;;;;;;7.13;3.50;;;;;;;;;;5047213;28;20064;-59
2023/01/03 03:04:35;;;;;;;6.43;3.35;;;;;;;;;;5064154;28;20466;-59
2023/01/03 03:07:27;;;;;;;7.10;3.20;;;;;;;;;;5064624;28;20040;-59
2023/01/03 03:15:24;;;;;;;7.60;3.70;;;;;;;;;;5062956;28;20047;-59
2023/01/03 03:17:53;;;;;;;7.70;3.33;;;;;;;;;;5058869;28;20404;-59
2023/01/03 03:25:51;;;;;;;10.82;3.78;;;;;;;;;;5059788;28;20055;-59
2023/01/03 03:28:36;;;;;;;7.78;3.38;;;;;;;;;;5056718;28;20031;-59
2023/01/03 03:31:28;;;;;;;7.55;3.75;;;;;;;;;;5056525;28;20568;-58
2023/01/03 03:34:13;;;;;;;8.93;4.00;;;;;;;;;;5060912;28;20039;-59
2023/01/03 03:36:57;;;;;;;6.43;3.60;;;;;;;;;;5060043;28;20036;-58
2023/01/03 03:45:10;;;;;;;7.90;3.47;;;;;;;;;;5065229;28;20047;-59
2023/01/03 03:47:45;;;;;;;6.38;3.75;;;;;;;;;;5060598;28;20041;-59
2023/01/03 03:50:18;;;;;;;9.85;4.18;;;;;;;;;;5063225;28;20478;-59
2023/01/03 03:52:44;;;;;;;8.57;4.00;;;;;;;;;;5063802;28;20036;-60
2023/01/03 03:55:20;;;;;;;7.93;4.32;;;;;;;;;;5062516;28;20968;-59
2023/01/03 03:57:49;;;;;;;10.43;4.32;;;;;;;;;;5062177;28;20040;-59
2023/01/03 04:00:15;;;;;;;10.77;4.18;;;;;;;;;;5061730;28;20306;-59
2023/01/03 04:02:41;;;;;;;11.93;4.63;;;;;;;;;;5055378;28;20245;-59
2023/01/03 04:05:07;;;;;;;13.88;4.75;;;;;;;;;;5064724;28;20107;-59
2023/01/03 04:07:33;;;;;;;11.77;4.25;;;;;;;;;;5060613;28;20033;-59
2023/01/03 04:09:58;;;;;;;14.23;5.25;;;;;;;;;;5062050;28;20263;-59
2023/01/03 04:12:23;;;;;;;10.10;4.68;;;;;;;;;;5063567;28;20418;-59
2023/01/03 04:14:48;;;;;;;13.40;5.50;;;;;;;;;;5061895;28;20438;-60
2023/01/03 04:17:13;;;;;;;7.05;4.45;;;;;;;;;;5062040;28;20024;-59
2023/01/03 04:19:42;;;;;;;9.07;4.68;;;;;;;;;;5061844;28;20043;-59
2023/01/03 04:22:07;;;;;;;8.98;5.15;;;;;;;;;;5063611;28;20923;-59
2023/01/03 04:24:32;;;;;;;10.30;5.35;;;;;;;;;;5064539;28;20060;-59
2023/01/03 04:26:57;;;;;;;14.13;6.20;;;;;;;;;;5063440;28;20067;-60
2023/01/03 04:29:22;;;;;;;13.80;5.53;;;;;;;;;;5059952;28;20020;-59
2023/01/03 04:31:48;;;;;;;8.25;5.47;;;;;;;;;;5062889;28;20051;-59
2023/01/03 04:34:13;;;;;;;12.90;5.57;;;;;;;;;;5062419;28;20225;-60
2023/01/03 04:36:38;;;;;;;11.45;5.43;;;;;;;;;;5062945;28;20061;-59
2023/01/03 04:39:03;;;;;;;15.30;5.80;;;;;;;;;;5062529;28;20028;-60
2023/01/03 04:41:29;;;;;;;11.57;5.90;;;;;;;;;;5063122;28;20020;-59
2023/01/03 04:44:03;;;;;;;10.75;5.28;;;;;;;;;;5062455;28;20028;-59
2023/01/03 04:46:35;;;;;;;13.13;6.53;;;;;;;;;;5061702;28;20020;-60
2023/01/03 04:49:01;;;;;;;11.88;5.93;;;;;;;;;;5060006;28;20032;-59
2023/01/03 04:51:26;;;;;;;13.68;6.97;;;;;;;;;;5059907;28;20078;-60
2023/01/03 04:53:51;;;;;;;12.95;6.35;;;;;;;;;;5061419;28;20032;-60
2023/01/03 04:56:17;;;;;;;13.32;6.35;;;;;;;;;;5061767;28;20031;-59
2023/01/03 04:58:42;;;;;;;11.32;6.38;;;;;;;;;;5063454;28;20131;-59
2023/01/03 05:01:07;;;;;;;12.85;6.78;;;;;;;;;;5063566;28;20023;-59
2023/01/03 05:03:33;;;;;;;15.68;7.15;;;;;;;;;;5062906;28;20477;-59
2023/01/03 05:05:59;;;;;;;14.32;7.22;;;;;;;;;;5063022;28;20561;-59
2023/01/03 05:08:24;;;;;;;11.23;7.28;;;;;;;;;;5062445;28;20017;-59
2023/01/03 05:10:50;;;;;;;13.48;7.60;;;;;;;;;;5063758;28;20399;-59
2023/01/03 05:13:15;;;;;;;16.17;8.00;;;;;;;;;;5061227;28;20462;-59
2023/01/03 05:15:40;;;;;;;20.75;8.52;;;;;;;;;;5067329;28;20016;-60
2023/01/03 05:18:05;;;;;;;11.60;7.03;;;;;;;;;;5067118;28;20036;-59
2023/01/03 05:25:59;;;;;;;14.73;7.80;;;;;;;;;;5065993;28;20051;-59
2023/01/03 05:28:24;;;;;;;14.60;7.72;;;;;;;;;;5066150;28;20498;-60
2023/01/03 05:30:50;;;;;;;16.50;8.18;;;;;;;;;;5069918;28;20095;-60
2023/01/03 05:33:15;;;;;;;13.65;7.53;;;;;;;;;;5067694;28;20045;-60
2023/01/03 05:35:43;;;;;;;18.52;9.02;;;;;;;;;;5069997;28;20013;-61
2023/01/03 05:38:08;;;;;;;17.35;8.50;;;;;;;;;;5067216;28;20051;-61
2023/01/03 05:40:33;;;;;;;16.15;8.43;;;;;;;;;;5067412;28;20797;-58
2023/01/03 05:42:59;;;;;;;16.95;8.70;;;;;;;;;;5062993;28;20032;-60
2023/01/03 05:45:26;;;;;;;18.13;9.35;;;;;;;;;;5069274;28;20025;-59
2023/01/03 05:47:51;;;;;;;18.08;8.75;;;;;;;;;;5068351;28;20029;-59
2023/01/03 05:50:17;;;;;;;18.98;8.90;;;;;;;;;;5068815;28;20023;-58
2023/01/03 05:52:42;;;;;;;19.73;8.70;;;;;;;;;;5067411;28;20530;-58
2023/01/03 05:55:07;;;;;;;15.57;8.98;;;;;;;;;;5060791;28;20036;-58
2023/01/03 05:57:33;;;;;;;19.38;9.80;;;;;;;;;;5068505;28;20446;-58
2023/01/03 05:59:58;;;;;;;17.42;9.63;;;;;;;;;;5068560;28;20119;-60
2023/01/03 06:02:23;;;;;;;18.58;9.65;;;;;;;;;;5068922;28;20374;-59
2023/01/03 06:04:48;;;;;;;19.55;9.75;;;;;;;;;;5066646;28;20028;-59
2023/01/03 06:07:14;;;;;;;16.75;9.82;;;;;;;;;;5065533;28;20052;-60
2023/01/03 06:09:39;;;;;;;19.48;10.15;;;;;;;;;;5068117;28;20027;-59
2023/01/03 06:12:04;;;;;;;28.23;9.80;;;;;;;;;;5068585;28;20038;-59
2023/01/03 06:14:30;;;;;;;19.70;9.85;;;;;;;;;;5069847;28;20042;-59
2023/01/03 06:19:38;;;;;;;20.92;9.90;;;;;;;;;;5064275;28;20023;-59
2023/01/03 06:22:04;;;;;;;17.65;9.55;;;;;;;;;;5066914;28;20028;-60
2023/01/03 06:24:29;;;;;;;16.60;8.80;;;;;;;;;;5066558;28;20013;-59
2023/01/03 06:26:54;;;;;;;18.33;9.85;;;;;;;;;;5064658;28;20024;-59
2023/01/03 06:29:19;;;;;;;18.48;9.18;;;;;;;;;;5063498;28;20031;-59
2023/01/03 06:31:45;;;;;;;21.48;10.32;;;;;;;;;;5064582;28;20032;-60
2023/01/03 06:34:10;;;;;;;18.02;10.10;;;;;;;;;;5060780;28;20339;-60
2023/01/03 06:36:38;;;;;;;22.55;9.85;;;;;;;;;;5060106;28;20028;-59
2023/01/03 06:39:03;;;;;;;19.80;10.05;;;;;;;;;;5061575;28;20115;-59
2023/01/03 06:41:29;;;;;;;20.75;10.48;;;;;;;;;;5062620;28;20119;-62
2023/01/03 06:43:54;;;;;;;20.15;9.75;;;;;;;;;;5060575;28;20414;-58
2023/01/03 06:54:32;;;;;;;20.95;10.15;;;;;;;;;;5061961;28;20103;-59
2023/01/03 06:56:57;;;;;;;25.00;11.98;;;;;;;;;;5072599;28;20119;-58
2023/01/03 06:59:23;;;;;;;25.02;11.18;;;;;;;;;;5064422;28;20103;-59
2023/01/03 07:01:48;;;;;;;27.15;11.07;;;;;;;;;;5064383;28;20024;-58
2023/01/03 07:04:13;;;;;;;22.25;10.50;;;;;;;;;;5065598;28;20378;-60
2023/01/03 07:06:39;;;;;;;24.02;11.15;;;;;;;;;;5066128;28;20044;-60
2023/01/03 07:09:04;;;;;;;21.90;11.57;;;;;;;;;;5061191;28;20075;-60
2023/01/03 07:11:29;;;;;;;18.40;10.55;;;;;;;;;;5059695;28;20049;-60
2023/01/03 07:13:58;;;;;;;21.70;10.82;;;;;;;;;;5065068;28;20024;-60
2023/01/03 07:16:24;;;;;;;23.80;11.45;;;;;;;;;;5065281;28;20012;-60
2023/01/03 07:18:50;;;;;;;22.25;11.48;;;;;;;;;;5063711;28;20024;-60
2023/01/03 07:21:15;;;;;;;25.50;11.65;;;;;;;;;;5063521;28;20048;-60
2023/01/03 07:23:40;;;;;;;23.67;11.45;;;;;;;;;;5065194;28;20024;-61
2023/01/03 07:26:05;;;;;;;27.90;12.77;;;;;;;;;;5062963;28;20127;-60
2023/01/03 07:28:31;;;;;;;28.40;12.32;;;;;;;;;;5064296;28;20028;-60
2023/01/03 07:30:59;;;;;;;27.95;13.52;;;;;;;;;;5064597;28;20486;-60
2023/01/03 07:33:25;;;;;;;28.45;12.45;;;;;;;;;;5064064;28;20036;-60
2023/01/03 07:35:50;;;;;;;28.08;13.07;;;;;;;;;;5064287;28;20020;-60
2023/01/03 07:38:15;;;;;;;32.17;13.60;;;;;;;;;;5061339;28;20016;-60
2023/01/03 07:40:40;;;;;;;27.10;12.65;;;;;;;;;;5064607;28;20070;-61
2023/01/03 07:45:51;;;;;;;25.02;12.48;;;;;;;;;;5063060;28;20034;-58
2023/01/03 07:48:16;;;;;;;32.45;14.15;;;;;;;;;;5063364;28;20016;-58
2023/01/03 07:50:41;;;;;;;27.80;13.68;;;;;;;;;;5061643;28;20032;-61
2023/01/03 07:53:07;;;;;;;26.67;13.18;;;;;;;;;;5063458;28;20036;-58
2023/01/03 07:55:32;;;;;;;28.67;12.35;;;;;;;;;;5064294;28;20020;-60
2023/01/03 07:57:58;;;;;;;31.52;14.98;;;;;;;;;;5061727;28;20033;-61
2023/01/03 08:00:23;;;;;;;23.00;12.77;;;;;;;;;;5063147;28;20103;-60
2023/01/03 08:02:51;;;;;;;27.80;12.43;;;;;;;;;;5064384;28;20020;-61
2023/01/03 08:05:16;;;;;;;21.95;11.13;;;;;;;;;;5059797;28;20035;-60
2023/01/03 08:07:41;;;;;;;22.75;12.43;;;;;;;;;;5060096;28;20041;-60
2023/01/03 08:15:35;;;;;;;19.95;11.30;;;;;;;;;;5064522;28;20059;-60
2023/01/03 08:18:00;;;;;;;19.52;8.70;;;;;;;;;;5060065;28;20148;-60
2023/01/03 08:20:25;;;;;;;18.58;9.35;;;;;;;;;;5063227;28;20056;-60
2023/01/03 08:22:51;;;;;;;18.73;9.30;;;;;;;;;;5063419;28;20032;-60
2023/01/03 08:25:16;;;;;;;17.33;8.60;;;;;;;;;;5058971;28;20025;-59
2023/01/03 08:27:42;;;;;;;21.67;9.52;;;;;;;;;;5052880;28;20702;-60
2023/01/03 08:30:07;;;;;;;15.73;9.05;;;;;;;;;;5057243;28;20025;-60
2023/01/03 08:32:33;;;;;;;18.38;7.93;;;;;;;;;;5060136;28;20151;-60
2023/01/03 08:34:58;;;;;;;19.08;9.25;;;;;;;;;;5060695;28;20028;-60
2023/01/03 08:37:24;;;;;;;16.38;8.95;;;;;;;;;;5061434;28;20035;-60
2023/01/03 08:39:50;;;;;;;14.88;8.15;;;;;;;;;;5056253;28;20505;-60
2023/01/03 08:42:15;;;;;;;19.10;8.55;;;;;;;;;;5054663;28;20029;-60
2023/01/03 08:44:43;;;;;;;16.85;8.15;;;;;;;;;;5055609;28;20452;-60
2023/01/03 08:47:08;;;;;;;12.73;7.15;;;;;;;;;;5059860;28;20068;-60
2023/01/03 08:49:34;;;;;;;13.07;7.00;;;;;;;;;;5057590;28;20025;-60
2023/01/03 08:51:59;;;;;;;20.48;7.93;;;;;;;;;;5059385;28;20075;-60
2023/01/03 08:54:24;;;;;;;17.30;7.80;;;;;;;;;;5060160;28;20028;-59
2023/01/03 08:56:49;;;;;;;16.50;8.38;;;;;;;;;;5060638;28;20386;-60
2023/01/03 08:59:15;;;;;;;15.60;8.18;;;;;;;;;;5059409;28;20031;-60
2023/01/03 09:01:40;;;;;;;12.48;8.40;;;;;;;;;;5061404;28;20028;-60
2023/01/03 09:04:05;;;;;;;16.92;9.38;;;;;;;;;;5057065;28;20459;-60
2023/01/03 09:06:30;;;;;;;14.98;8.40;;;;;;;;;;5055353;28;20115;-60
2023/01/03 09:08:56;;;;;;;15.20;7.82;;;;;;;;;;5062001;28;20433;-60
2023/01/03 09:11:21;;;;;;;13.07;6.85;;;;;;;;;;5059591;28;20123;-60
2023/01/03 09:13:46;;;;;;;12.15;6.90;;;;;;;;;;5061909;28;20031;-60
2023/01/03 09:16:12;;;;;;;10.73;7.10;;;;;;;;;;5058245;28;20017;-60
2023/01/03 09:18:37;;;;;;;12.57;6.32;;;;;;;;;;5058038;28;20296;-60
2023/01/03 09:21:03;;;;;;;11.55;6.40;;;;;;;;;;5057528;28;20029;-60
2023/01/03 09:23:29;;;;;;;13.15;5.88;;;;;;;;;;5060438;28;20478;-59
2023/01/03 09:25:54;;;;;;;14.13;6.45;;;;;;;;;;5061992;28;20025;-60
2023/01/03 09:28:19;;;;;;;8.02;5.38;;;;;;;;;;5057445;28;20347;-61
2023/01/03 09:30:45;;;;;;;12.80;5.45;;;;;;;;;;5063824;28;20029;-60
2023/01/03 09:33:10;;;;;;;8.02;4.80;;;;;;;;;;5055423;28;20032;-59
2023/01/03 09:35:36;;;;;;;11.80;4.80;;;;;;;;;;5061352;28;20502;-59
2023/01/03 09:38:01;;;;;;;11.82;4.57;;;;;;;;;;5058797;28;20356;-58
2023/01/03 09:40:28;;;;;;;12.85;4.80;;;;;;;;;;5060184;28;20471;-59
2023/01/03 09:45:58;;;;;;;9.70;3.90;;;;;;;;;;5054769;28;20036;-58
2023/01/03 09:48:26;;;;;;;9.38;4.25;;;;;;;;;;5041626;28;20040;-58
2023/01/03 09:50:51;;;;;;;9.05;3.78;;;;;;;;;;5050512;28;20461;-58
2023/01/03 10:04:42;;;;;;;6.53;3.35;;;;;;;;;;5063008;28;20074;-58
2023/01/03 10:07:28;;;;;;;14.07;4.70;;;;;;;;;;5065548;28;20103;-60
2023/01/03 10:09:57;;;;;;;7.65;3.65;;;;;;;;;;5062733;28;20435;-60
2023/01/03 10:12:29;;;;;;;9.45;3.80;;;;;;;;;;5065114;28;20036;-58
2023/01/03 10:15:03;;;;;;;8.50;3.40;;;;;;;;;;5065732;28;20024;-60
2023/01/03 10:17:40;;;;;;;10.35;3.80;;;;;;;;;;5064707;28;20039;-60
2023/01/03 10:20:05;;;;;;;8.43;3.33;;;;;;;;;;5063751;28;20321;-60
2023/01/03 10:22:31;;;;;;;8.63;3.63;;;;;;;;;;5066578;28;20021;-59
2023/01/03 10:24:59;;;;;;;11.18;3.50;;;;;;;;;;5064553;28;20120;-59
2023/01/03 10:27:25;;;;;;;10.25;3.45;;;;;;;;;;5064640;28;20036;-60
2023/01/03 10:29:58;;;;;;;9.90;4.03;;;;;;;;;;5062897;28;20402;-60
2023/01/03 10:32:43;;;;;;;5.25;3.22;;;;;;;;;;5060042;28;20314;-60
2023/01/03 10:35:11;;;;;;;9.57;3.17;;;;;;;;;;5065373;28;20120;-59
2023/01/03 10:37:38;;;;;;;24.50;9.82;;;;;;;;;;5057806;28;20032;-59
2023/01/03 10:40:04;;;;;;;133.63;36.10;;;;;;;;;;5064460;28;20035;-59
2023/01/03 10:42:29;;;;;;;76.25;24.10;;;;;;;;;;5062396;28;20017;-60
2023/01/03 10:44:56;;;;;;;8.52;3.38;;;;;;;;;;5056255;28;20036;-59
2023/01/03 10:47:21;;;;;;;82.00;25.33;;;;;;;;;;5059498;28;20029;-59
2023/01/03 10:49:46;;;;;;;26.90;9.43;;;;;;;;;;5060571;28;20017;-60
2023/01/03 10:52:13;;;;;;;52.53;17.38;;;;;;;;;;5060392;28;20632;-59
2023/01/03 10:54:41;;;;;;;16.40;5.03;;;;;;;;;;5059881;28;20024;-59
2023/01/03 10:57:07;;;;;;;15.80;6.05;;;;;;;;;;5061565;28;20024;-59
2023/01/03 10:59:32;;;;;;;8.63;2.95;;;;;;;;;;5059185;28;20032;-59
2023/01/03 11:02:06;;;;;;;9.90;2.95;;;;;;;;;;5060408;28;20119;-59
2023/01/03 11:04:31;;;;;;;38.15;11.60;;;;;;;;;;5057238;28;20020;-59
2023/01/03 11:07:03;;;;;;;14.60;5.03;;;;;;;;;;5059832;28;20414;-59
2023/01/03 11:09:40;;;;;;;52.17;18.73;;;;;;;;;;5061378;28;20063;-59
2023/01/03 11:12:13;;;;;;;39.92;14.82;;;;;;;;;;5059147;28;20036;-59
2023/01/03 11:14:39;;;;;;;36.40;12.50;;;;;;;;;;5061821;28;20033;-59
2023/01/03 11:17:07;;;;;;;16.42;4.82;;;;;;;;;;5062131;28;20048;-59
2023/01/03 11:19:33;;;;;;;16.50;6.50;;;;;;;;;;5061914;28;20024;-59
2023/01/03 11:21:58;;;;;;;13.68;4.20;;;;;;;;;;5058777;28;20044;-59
2023/01/03 11:24:27;;;;;;;11.88;2.83;;;;;;;;;;5059284;28;20107;-59
2023/01/03 11:27:02;;;;;;;4.83;2.13;;;;;;;;;;5059860;28;20020;-59
2023/01/03 11:29:33;;;;;;;11.65;3.53;;;;;;;;;;5060507;28;20032;-60
2023/01/03 11:31:58;;;;;;;14.50;6.03;;;;;;;;;;5061548;28;20036;-59
2023/01/03 11:34:23;;;;;;;12.18;4.38;;;;;;;;;;5063089;28;20759;-59
2023/01/03 11:36:57;;;;;;;16.85;7.00;;;;;;;;;;5063453;28;20059;-59
2023/01/03 11:39:42;;;;;;;30.30;10.63;;;;;;;;;;5061556;28;20285;-58
2023/01/03 11:42:22;;;;;;;25.65;8.70;;;;;;;;;;5062687;28;20495;-58
2023/01/03 11:44:52;;;;;;;51.65;15.98;;;;;;;;;;5057905;28;20553;-59
2023/01/03 11:47:17;;;;;;;38.33;12.40;;;;;;;;;;5058531;28;20031;-58
2023/01/03 11:50:06;;;;;;;13.50;5.18;;;;;;;;;;5061236;28;20020;-59
2023/01/03 11:52:49;;;;;;;13.00;3.05;;;;;;;;;;5070710;28;20036;-59
2023/01/03 11:55:21;;;;;;;11.40;3.75;;;;;;;;;;5062358;28;20028;-59
2023/01/03 11:57:49;;;;;;;19.60;7.10;;;;;;;;;;5062922;28;20665;-58
2023/01/03 12:00:34;;;;;;;66.38;23.75;;;;;;;;;;5060060;28;20502;-59
2023/01/03 12:03:02;;;;;;;13.23;4.30;;;;;;;;;;5062752;28;20036;-58
2023/01/03 12:05:41;;;;;;;26.95;7.82;;;;;;;;;;5061344;28;20024;-58
2023/01/03 12:08:18;;;;;;;16.02;5.03;;;;;;;;;;5066238;28;20060;-60
2023/01/03 12:10:53;;;;;;;51.35;15.48;;;;;;;;;;5063347;28;20103;-60
2023/01/03 12:13:28;;;;;;;36.08;10.70;;;;;;;;;;5075072;28;20131;-58
2023/01/03 12:16:03;;;;;;;39.25;10.20;;;;;;;;;;5061377;28;20020;-59
2023/01/03 12:18:36;;;;;;;25.80;7.40;;;;;;;;;;5056272;28;20028;-58
2023/01/03 12:21:04;;;;;;;28.77;9.05;;;;;;;;;;5057669;28;20082;-59
2023/01/03 12:23:32;;;;;;;23.88;7.13;;;;;;;;;;5060032;28;20028;-59
2023/01/03 12:25:58;;;;;;;55.80;16.45;;;;;;;;;;5058183;28;20429;-61
2023/01/03 12:28:28;;;;;;;19.63;6.45;;;;;;;;;;5068005;28;20572;-60
2023/01/03 12:30:54;;;;;;;8.15;2.70;;;;;;;;;;5056156;28;20538;-59
2023/01/03 12:33:31;;;;;;;12.95;3.28;;;;;;;;;;5057443;28;20039;-61
2023/01/03 12:36:15;;;;;;;7.78;2.83;;;;;;;;;;5054562;28;20032;-60
2023/01/03 12:38:41;;;;;;;12.13;3.08;;;;;;;;;;5058041;28;20513;-59
2023/01/03 12:41:11;;;;;;;7.60;2.60;;;;;;;;;;5060601;28;20426;-59
2023/01/03 12:43:38;;;;;;;12.05;3.38;;;;;;;;;;5061240;28;20502;-59
2023/01/03 12:46:04;;;;;;;8.70;3.75;;;;;;;;;;5058751;28;20112;-59
2023/01/03 12:48:32;;;;;;;16.45;5.03;;;;;;;;;;5062042;28;20039;-61
2023/01/03 12:51:01;;;;;;;7.70;3.00;;;;;;;;;;5059988;28;20082;-59
2023/01/03 12:53:26;;;;;;;19.67;7.25;;;;;;;;;;5057920;28;20020;-60
2023/01/03 12:56:24;;;;;;;12.07;3.15;;;;;;;;;;5058267;28;20020;-59
2023/01/03 12:58:55;;;;;;;6.47;2.47;;;;;;;;;;5059559;28;20044;-60
2023/01/03 13:01:25;;;;;;;14.82;5.57;;;;;;;;;;5059416;28;20016;-60
2023/01/03 13:03:54;;;;;;;9.82;3.15;;;;;;;;;;5060259;28;20035;-58
2023/01/03 13:06:27;;;;;;;11.73;3.10;;;;;;;;;;5075468;28;20051;-59
2023/01/03 13:08:56;;;;;;;11.75;4.72;;;;;;;;;;5060872;28;20047;-61
2023/01/03 13:11:26;;;;;;;11.63;4.55;;;;;;;;;;5057189;28;20020;-59
2023/01/03 13:13:52;;;;;;;12.82;4.22;;;;;;;;;;5061822;28;20092;-60
2023/01/03 13:16:33;;;;;;;6.65;2.72;;;;;;;;;;5059027;28;20028;-59
2023/01/03 13:19:18;;;;;;;8.45;3.28;;;;;;;;;;5055219;28;20032;-61
2023/01/03 13:21:52;;;;;;;10.15;2.85;;;;;;;;;;5051031;28;20429;-58
2023/01/03 13:24:44;;;;;;;12.52;3.67;;;;;;;;;;5060747;28;20120;-60
2023/01/03 13:27:16;;;;;;;9.82;3.03;;;;;;;;;;5059335;28;20041;-60
2023/01/03 13:29:42;;;;;;;13.50;3.30;;;;;;;;;;5058599;28;20016;-59
2023/01/03 13:32:14;;;;;;;16.88;6.00;;;;;;;;;;5059443;28;20115;-59
2023/01/03 13:34:39;;;;;;;23.88;9.90;;;;;;;;;;5061355;28;20048;-59
2023/01/03 13:37:04;;;;;;;22.63;8.60;;;;;;;;;;5060769;28;20063;-59
2023/01/03 13:39:34;;;;;;;14.70;4.35;;;;;;;;;;5060897;28;20027;-59
2023/01/03 13:42:00;;;;;;;8.50;2.95;;;;;;;;;;5061535;28;20096;-63
2023/01/03 13:44:25;;;;;;;24.75;9.20;;;;;;;;;;5065140;28;20123;-59
2023/01/03 13:46:50;;;;;;;11.32;4.50;;;;;;;;;;5060981;28;20036;-59
2023/01/03 13:49:17;;;;;;;17.85;7.07;;;;;;;;;;5055181;28;20182;-61
2023/01/03 13:51:42;;;;;;;10.48;3.55;;;;;;;;;;5063691;28;20016;-59
2023/01/03 13:54:10;;;;;;;8.82;3.28;;;;;;;;;;5064238;28;20047;-59
2023/01/03 13:56:41;;;;;;;4.97;2.40;;;;;;;;;;5065244;28;20381;-59
2023/01/03 13:59:10;;;;;;;10.75;2.47;;;;;;;;;;5065653;28;20510;-60
2023/01/03 14:01:38;;;;;;;8.90;2.63;;;;;;;;;;5062260;28;20052;-59
2023/01/03 14:04:22;;;;;;;10.95;2.40;;;;;;;;;;5065845;28;20038;-60
2023/01/03 14:06:47;;;;;;;11.23;5.15;;;;;;;;;;5063677;28;20072;-60
2023/01/03 14:09:12;;;;;;;7.65;2.80;;;;;;;;;;5063954;28;20048;-60
2023/01/03 14:11:41;;;;;;;10.48;2.75;;;;;;;;;;5065860;28;20066;-59
2023/01/03 14:14:08;;;;;;;7.47;2.50;;;;;;;;;;5066666;28;20036;-58
2023/01/03 14:16:37;;;;;;;7.82;2.80;;;;;;;;;;5064767;28;20099;-59
2023/01/03 14:19:03;;;;;;;10.88;5.55;;;;;;;;;;5066515;28;20032;-59
2023/01/03 14:21:58;;;;;;;12.98;3.78;;;;;;;;;;5062055;28;20024;-59
2023/01/03 14:24:27;;;;;;;9.95;2.80;;;;;;;;;;5059919;28;20295;-59
2023/01/03 14:26:52;;;;;;;11.43;2.85;;;;;;;;;;5064761;28;20030;-59
2023/01/03 14:29:22;;;;;;;4.50;2.70;;;;;;;;;;5064752;28;20461;-59
2023/01/03 14:31:48;;;;;;;8.80;2.83;;;;;;;;;;5066294;28;20044;-59
2023/01/03 14:34:40;;;;;;;10.93;3.10;;;;;;;;;;5065406;28;20017;-59
2023/01/03 14:37:09;;;;;;;8.27;3.00;;;;;;;;;;5065339;28;20028;-59
2023/01/03 14:39:35;;;;;;;7.93;3.13;;;;;;;;;;5065028;28;20021;-60
2023/01/03 14:42:01;;;;;;;12.18;3.33;;;;;;;;;;5064428;28;20036;-60
2023/01/03 14:44:28;;;;;;;8.98;2.88;;;;;;;;;;5075869;28;20032;-59
2023/01/03 14:46:57;;;;;;;6.65;3.22;;;;;;;;;;5063974;28;20083;-59
2023/01/03 14:49:26;;;;;;;8.88;2.97;;;;;;;;;;5064943;28;20377;-63
2023/01/03 14:51:51;;;;;;;11.07;2.67;;;;;;;;;;5060680;28;20466;-58
2023/01/03 14:54:17;;;;;;;16.38;3.45;;;;;;;;;;5066152;28;20025;-58
2023/01/03 14:56:45;;;;;;;8.52;2.92;;;;;;;;;;5065342;28;20467;-58
2023/01/03 14:59:15;;;;;;;7.15;2.47;;;;;;;;;;5062990;28;20402;-59
2023/01/03 15:01:40;;;;;;;7.63;2.20;;;;;;;;;;5062013;28;20048;-59
2023/01/03 15:04:06;;;;;;;11.57;2.70;;;;;;;;;;5064424;28;20024;-59
2023/01/03 15:06:31;;;;;;;8.68;2.60;;;;;;;;;;5065176;28;20135;-59
2023/01/03 15:08:57;;;;;;;10.82;2.75;;;;;;;;;;5066252;28;20040;-59
2023/01/03 15:11:32;;;;;;;8.20;3.00;;;;;;;;;;5065047;28;20051;-59
2023/01/03 15:14:04;;;;;;;7.00;2.60;;;;;;;;;;5081094;28;20044;-59
2023/01/03 15:16:36;;;;;;;12.20;2.95;;;;;;;;;;5063749;28;20021;-59
2023/01/03 15:19:01;;;;;;;6.75;2.78;;;;;;;;;;5061138;28;20078;-59
2023/01/03 15:21:27;;;;;;;10.52;2.80;;;;;;;;;;5063045;28;20020;-59
2023/01/03 15:23:52;;;;;;;5.70;2.72;;;;;;;;;;5065071;28;20100;-59
2023/01/03 15:26:22;;;;;;;7.97;2.70;;;;;;;;;;5053276;28;20141;-59
2023/01/03 15:28:54;;;;;;;11.00;3.40;;;;;;;;;;5056972;28;20375;-58
2023/01/03 15:31:27;;;;;;;14.30;3.42;;;;;;;;;;5058710;28;20036;-59
2023/01/03 15:34:11;;;;;;;11.52;3.10;;;;;;;;;;5058170;28;20029;-59
2023/01/03 15:36:36;;;;;;;14.02;3.13;;;;;;;;;;5073335;28;20036;-59
2023/01/03 15:39:02;;;;;;;11.13;3.05;;;;;;;;;;5062189;28;20028;-59
2023/01/03 15:44:11;;;;;;;10.20;2.80;;;;;;;;;;5063220;28;20039;-59
2023/01/03 15:46:36;;;;;;;9.55;2.67;;;;;;;;;;5063215;28;20028;-59